createdAt,value
2023-03-26T00:02:20.352Z,8.24
2023-03-26T00:04:53.902Z,8.20
2023-03-26T00:07:23.777Z,8.16
2023-03-26T00:09:56.494Z,8.14
2023-03-26T00:12:26.907Z,8.08
2023-03-26T00:14:57.718Z,8.04
2023-03-26T00:17:27.615Z,8.00
2023-03-26T00:20:00.366Z,8.00
2023-03-26T00:22:29.981Z,8.00
2023-03-26T00:25:02.060Z,7.95
2023-03-26T00:27:32.156Z,7.97
2023-03-26T00:30:01.859Z,7.97
2023-03-26T00:32:33.158Z,7.97
2023-03-26T00:35:04.582Z,7.92
2023-03-26T00:37:34.609Z,7.89
2023-03-26T00:40:11.103Z,7.86
2023-03-26T00:42:40.574Z,7.86
2023-03-26T00:45:12.340Z,7.81
2023-03-26T00:47:41.240Z,7.80
2023-03-26T00:50:16.266Z,7.80
2023-03-26T00:52:47.067Z,7.80
2023-03-26T00:55:18.209Z,7.76
2023-03-26T00:57:48.849Z,7.75
2023-03-26T01:00:32.576Z,7.75
2023-03-26T01:03:03.036Z,7.75
2023-03-26T01:05:48.932Z,7.75
2023-03-26T01:08:33.771Z,7.75
2023-03-26T01:11:14.791Z,7.77
2023-03-26T01:13:50.625Z,7.78
2023-03-26T01:16:31.558Z,7.76
2023-03-26T01:19:01.313Z,7.79
2023-03-26T01:21:32.487Z,7.78
2023-03-26T01:24:05.890Z,7.73
2023-03-26T01:27:24.974Z,7.77
2023-03-26T01:29:58.904Z,7.78
2023-03-26T01:33:14.544Z,7.80
2023-03-26T01:35:54.334Z,7.83
2023-03-26T01:38:36.101Z,7.82
2023-03-26T01:41:14.838Z,7.82
2023-03-26T01:43:53.190Z,7.84
2023-03-26T01:46:26.244Z,7.82
2023-03-26T01:48:56.091Z,7.84
2023-03-26T01:51:32.308Z,7.86
2023-03-26T01:54:03.599Z,7.87
2023-03-26T01:56:49.099Z,7.89
2023-03-26T02:00:02.303Z,7.90
2023-03-26T02:02:43.971Z,7.89
2023-03-26T02:05:22.615Z,7.91
2023-03-26T02:08:01.048Z,7.91
2023-03-26T02:10:33.760Z,7.92
2023-03-26T02:13:06.506Z,7.91
2023-03-26T02:15:37.103Z,7.93
2023-03-26T02:18:05.860Z,7.96
2023-03-26T02:20:36.811Z,7.98
2023-03-26T02:23:07.446Z,7.98
2023-03-26T02:25:40.405Z,7.96
2023-03-26T02:28:12.329Z,7.99
2023-03-26T02:30:41.370Z,8.01
2023-03-26T02:33:16.127Z,8.01
2023-03-26T02:35:46.061Z,8.01
2023-03-26T02:38:16.169Z,7.99
2023-03-26T02:40:46.875Z,7.98
2023-03-26T02:43:18.754Z,8.00
2023-03-26T02:45:48.203Z,8.03
2023-03-26T02:48:18.632Z,7.98
2023-03-26T02:50:50.734Z,8.00
2023-03-26T02:53:20.153Z,8.00
2023-03-26T02:55:50.414Z,8.01
2023-03-26T02:58:20.948Z,8.00
2023-03-26T03:00:55.487Z,7.99
2023-03-26T03:03:25.986Z,7.97
2023-03-26T03:05:57.207Z,7.96
2023-03-26T03:08:29.857Z,7.95
2023-03-26T03:11:01.397Z,7.97
2023-03-26T03:13:32.613Z,7.96
2023-03-26T03:16:02.558Z,7.98
2023-03-26T03:18:33.649Z,7.99
2023-03-26T03:21:03.312Z,8.00
2023-03-26T03:23:34.487Z,8.01
2023-03-26T03:26:04.170Z,8.02
2023-03-26T03:28:35.554Z,8.03
2023-03-26T03:31:06.005Z,8.04
2023-03-26T03:33:36.117Z,8.03
2023-03-26T03:36:20.100Z,8.01
2023-03-26T03:38:51.662Z,7.98
2023-03-26T03:41:21.390Z,7.98
2023-03-26T03:43:53.368Z,7.99
2023-03-26T03:46:23.364Z,8.01
2023-03-26T03:48:52.157Z,8.03
2023-03-26T03:51:22.217Z,8.04
2023-03-26T03:53:51.397Z,8.06
2023-03-26T03:56:24.707Z,8.07
2023-03-26T03:58:56.258Z,8.05
2023-03-26T04:01:26.339Z,8.05
2023-03-26T04:03:56.394Z,8.03
2023-03-26T04:06:27.111Z,8.04
2023-03-26T04:08:57.295Z,8.02
2023-03-26T04:11:26.856Z,8.02
2023-03-26T04:13:58.342Z,8.01
2023-03-26T04:16:28.043Z,8.02
2023-03-26T04:18:59.284Z,8.02
2023-03-26T04:21:31.173Z,8.02
2023-03-26T04:24:02.202Z,8.01
2023-03-26T04:26:32.495Z,7.99
2023-03-26T04:29:07.834Z,7.98
2023-03-26T04:31:41.015Z,7.98
2023-03-26T04:34:18.754Z,8.00
2023-03-26T04:36:49.493Z,7.97
2023-03-26T04:39:21.777Z,7.95
2023-03-26T04:41:52.504Z,7.95
2023-03-26T04:44:24.017Z,7.94
2023-03-26T04:46:55.900Z,7.95
2023-03-26T04:49:26.904Z,7.95
2023-03-26T04:51:57.150Z,7.93
2023-03-26T04:54:26.838Z,7.91
2023-03-26T04:57:05.243Z,7.95
2023-03-26T04:59:37.929Z,7.96
2023-03-26T05:02:10.303Z,7.95
2023-03-26T05:04:41.106Z,7.97
2023-03-26T05:07:13.231Z,7.99
2023-03-26T05:09:42.937Z,8.00
2023-03-26T05:12:12.111Z,8.00
2023-03-26T05:14:46.667Z,7.97
2023-03-26T05:17:19.567Z,7.95
2023-03-26T05:19:50.447Z,7.95
2023-03-26T05:22:19.700Z,7.95
2023-03-26T05:24:48.318Z,7.93
2023-03-26T05:27:20.261Z,7.90
2023-03-26T05:29:52.262Z,7.91
2023-03-26T05:32:21.747Z,7.93
2023-03-26T05:34:52.286Z,7.92
2023-03-26T05:37:25.209Z,7.91
2023-03-26T05:39:56.231Z,7.90
2023-03-26T05:42:27.976Z,7.89
2023-03-26T05:44:58.498Z,7.90
2023-03-26T05:47:29.316Z,7.90
2023-03-26T05:49:59.990Z,7.92
2023-03-26T05:52:30.163Z,7.90
2023-03-26T05:55:00.852Z,7.91
2023-03-26T05:57:33.968Z,7.92
2023-03-26T06:00:06.541Z,7.90
2023-03-26T06:02:37.078Z,7.89
2023-03-26T06:05:07.830Z,7.87
2023-03-26T06:07:39.845Z,7.88
2023-03-26T06:10:18.071Z,7.88
2023-03-26T06:12:50.275Z,7.89
2023-03-26T06:15:22.792Z,7.90
2023-03-26T06:17:53.425Z,7.91
2023-03-26T06:20:23.890Z,7.91
2023-03-26T06:22:54.037Z,7.93
2023-03-26T06:25:24.065Z,7.94
2023-03-26T06:27:53.841Z,7.93
2023-03-26T06:30:24.776Z,7.95
2023-03-26T06:32:54.597Z,7.97
2023-03-26T06:35:24.620Z,7.99
2023-03-26T06:37:54.867Z,8.01
2023-03-26T06:40:25.098Z,7.99
2023-03-26T06:43:06.957Z,8.00
2023-03-26T06:45:41.137Z,8.02
2023-03-26T06:48:10.863Z,8.02
2023-03-26T06:50:40.271Z,8.04
2023-03-26T06:53:10.178Z,8.03
2023-03-26T06:55:41.232Z,8.04
2023-03-26T06:58:13.168Z,8.01
2023-03-26T07:00:45.003Z,8.02
2023-03-26T07:03:14.410Z,8.03
2023-03-26T07:05:43.805Z,8.02
2023-03-26T07:08:12.760Z,8.04
2023-03-26T07:10:43.139Z,8.03
2023-03-26T07:13:13.223Z,7.97
2023-03-26T07:15:44.456Z,7.97
2023-03-26T07:18:15.371Z,7.99
2023-03-26T07:20:47.075Z,7.97
2023-03-26T07:23:20.989Z,7.98
2023-03-26T07:25:52.252Z,8.01
2023-03-26T07:28:32.118Z,8.00
2023-03-26T07:31:18.969Z,8.01
2023-03-26T07:34:04.766Z,8.05
2023-03-26T07:36:43.600Z,8.05
2023-03-26T07:39:35.490Z,8.07
2023-03-26T07:42:18.625Z,8.07
2023-03-26T07:44:59.573Z,8.06
2023-03-26T07:47:37.305Z,8.07
2023-03-26T07:50:08.964Z,8.05
2023-03-26T07:52:40.127Z,8.07
2023-03-26T07:55:15.857Z,8.07
2023-03-26T07:58:05.329Z,8.08
2023-03-26T08:00:44.256Z,8.08
2023-03-26T08:03:39.859Z,8.06
2023-03-26T08:06:22.890Z,8.08
2023-03-26T08:09:04.095Z,8.10
2023-03-26T08:11:46.873Z,8.13
2023-03-26T08:14:34.319Z,8.14
2023-03-26T08:17:14.237Z,8.16
2023-03-26T08:20:06.525Z,8.17
2023-03-26T08:22:41.782Z,8.18
2023-03-26T08:25:29.671Z,8.20
2023-03-26T08:28:19.022Z,8.19
2023-03-26T08:30:49.162Z,8.22
2023-03-26T08:33:23.433Z,8.31
2023-03-26T08:35:54.294Z,8.34
2023-03-26T08:38:24.798Z,8.41
2023-03-26T08:41:43.800Z,8.44
2023-03-26T08:45:14.155Z,8.48
2023-03-26T08:48:39.903Z,8.40
2023-03-26T08:52:01.686Z,8.43
2023-03-26T08:55:11.969Z,8.44
2023-03-26T08:58:44.841Z,8.47
2023-03-26T09:02:03.623Z,8.53
2023-03-26T09:05:32.003Z,8.62
2023-03-26T09:08:54.284Z,8.67
2023-03-26T09:12:06.923Z,8.69
2023-03-26T09:15:22.650Z,8.70
2023-03-26T09:18:46.122Z,8.72
2023-03-26T09:22:01.943Z,8.78
2023-03-26T09:25:43.088Z,8.87
2023-03-26T09:29:17.016Z,8.99
2023-03-26T09:32:37.920Z,9.03
2023-03-26T09:35:43.179Z,9.04
2023-03-26T09:38:36.311Z,9.06
2023-03-26T09:41:18.622Z,9.08
2023-03-26T09:44:45.344Z,9.04
2023-03-26T09:48:08.651Z,9.04
2023-03-26T09:50:59.352Z,9.07
2023-03-26T09:53:59.574Z,9.16
2023-03-26T09:56:48.047Z,9.23
2023-03-26T09:59:49.216Z,9.32
2023-03-26T10:03:16.483Z,9.41
2023-03-26T10:06:12.618Z,9.50
2023-03-26T10:09:20.815Z,9.61
2023-03-26T10:12:32.785Z,9.75
2023-03-26T10:15:21.326Z,9.84
2023-03-26T10:18:27.901Z,9.92
2023-03-26T10:21:07.262Z,9.97
2023-03-26T10:24:14.408Z,10.06
2023-03-26T10:27:30.030Z,10.10
2023-03-26T10:30:41.989Z,10.09
2023-03-26T10:33:27.124Z,10.15
2023-03-26T10:36:17.459Z,10.11
2023-03-26T10:39:36.907Z,10.16
2023-03-26T10:42:41.329Z,10.23
2023-03-26T10:45:38.675Z,10.13
2023-03-26T10:48:33.077Z,10.13
2023-03-26T10:51:36.975Z,10.16
2023-03-26T10:54:20.199Z,10.22
2023-03-26T10:56:52.412Z,10.20
2023-03-26T10:59:24.505Z,10.22
2023-03-26T11:02:30.541Z,10.22
2023-03-26T11:05:29.405Z,10.26
2023-03-26T11:08:08.021Z,10.32
2023-03-26T11:10:55.202Z,10.32
2023-03-26T11:13:43.383Z,10.35
2023-03-26T11:16:23.670Z,10.36
2023-03-26T11:19:03.759Z,10.39
2023-03-26T11:21:45.441Z,10.37
2023-03-26T11:24:50.562Z,10.37
2023-03-26T11:27:36.981Z,10.42
2023-03-26T11:30:23.384Z,10.40
2023-03-26T11:32:59.457Z,10.42
2023-03-26T11:35:40.382Z,10.50
2023-03-26T11:38:20.891Z,10.48
2023-03-26T11:40:54.804Z,10.44
2023-03-26T11:43:34.295Z,10.47
2023-03-26T11:46:07.430Z,10.52
2023-03-26T11:48:44.229Z,10.52
2023-03-26T11:51:24.856Z,10.59
2023-03-26T11:53:55.167Z,10.58
2023-03-26T11:56:34.250Z,10.63
2023-03-26T11:59:11.556Z,10.63
2023-03-26T12:01:51.177Z,10.65
2023-03-26T12:04:30.027Z,10.67
2023-03-26T12:07:16.510Z,10.55
2023-03-26T12:09:54.909Z,10.40
2023-03-26T12:12:27.827Z,10.45
2023-03-26T12:14:57.788Z,10.54
2023-03-26T12:17:34.049Z,10.63
2023-03-26T12:20:41.058Z,10.68
2023-03-26T12:23:52.668Z,10.70
2023-03-26T12:26:34.646Z,10.77
2023-03-26T12:29:11.560Z,10.77
2023-03-26T12:31:52.375Z,10.71
2023-03-26T12:34:23.928Z,10.66
2023-03-26T12:37:01.575Z,10.65
2023-03-26T12:40:10.128Z,10.65
2023-03-26T12:44:46.733Z,10.70
2023-03-26T12:45:24.259Z,10.83
2023-03-26T12:48:03.422Z,10.86
2023-03-26T12:50:48.827Z,10.88
2023-03-26T12:53:43.826Z,10.88
2023-03-26T12:56:27.768Z,10.85
2023-03-26T12:59:19.596Z,10.87
2023-03-26T13:01:59.651Z,10.92
2023-03-26T13:05:04.978Z,10.91
2023-03-26T13:07:58.363Z,11.04
2023-03-26T13:10:52.584Z,11.11
2023-03-26T13:13:58.130Z,11.18
2023-03-26T13:16:39.556Z,11.25
2023-03-26T13:19:15.555Z,11.30
2023-03-26T13:22:03.465Z,11.30
2023-03-26T13:24:49.269Z,11.24
2023-03-26T13:27:38.548Z,11.30
2023-03-26T13:30:26.024Z,11.38
2023-03-26T13:33:32.250Z,11.35
2023-03-26T13:36:22.493Z,11.32
2023-03-26T13:39:28.844Z,11.26
2023-03-26T13:42:16.893Z,11.14
2023-03-26T13:45:05.801Z,11.12
2023-03-26T13:47:42.241Z,10.92
2023-03-26T13:50:25.005Z,10.97
2023-03-26T13:53:01.209Z,10.90
2023-03-26T13:55:37.500Z,10.91
2023-03-26T13:58:18.923Z,11.04
2023-03-26T14:00:59.717Z,11.31
2023-03-26T14:03:37.924Z,11.70
2023-03-26T14:06:28.291Z,12.01
2023-03-26T14:09:06.654Z,12.19
2023-03-26T14:11:55.859Z,12.25
2023-03-26T14:14:36.304Z,12.23
2023-03-26T14:17:19.052Z,12.18
2023-03-26T14:20:42.246Z,12.16
2023-03-26T14:23:48.229Z,12.01
2023-03-26T14:26:39.445Z,11.96
2023-03-26T14:29:56.635Z,11.96
2023-03-26T14:32:49.408Z,11.91
2023-03-26T14:35:42.708Z,11.99
2023-03-26T14:38:41.247Z,12.01
2023-03-26T14:41:27.166Z,11.95
2023-03-26T14:44:47.598Z,11.82
2023-03-26T14:47:21.097Z,11.85
2023-03-26T14:50:36.963Z,11.70
2023-03-26T14:53:20.427Z,11.40
2023-03-26T14:56:43.442Z,11.28
2023-03-26T15:00:06.925Z,11.05
2023-03-26T15:03:49.716Z,10.88
2023-03-26T15:07:22.975Z,10.95
2023-03-26T15:10:57.670Z,10.92
2023-03-26T15:14:03.107Z,10.92
2023-03-26T15:17:29.414Z,10.78
2023-03-26T15:21:11.238Z,10.77
2023-03-26T15:25:00.149Z,10.80
2023-03-26T15:28:12.258Z,10.50
2023-03-26T15:31:21.053Z,10.32
2023-03-26T15:34:58.851Z,10.09
2023-03-26T15:38:08.762Z,10.08
2023-03-26T15:40:57.077Z,10.11
2023-03-26T15:44:23.941Z,10.01
2023-03-26T15:47:34.542Z,9.99
2023-03-26T15:50:27.860Z,10.00
2023-03-26T15:53:11.251Z,10.02
2023-03-26T15:56:00.723Z,10.05
2023-03-26T15:58:44.738Z,10.08
2023-03-26T16:01:30.373Z,10.06
2023-03-26T16:04:23.133Z,10.03
2023-03-26T16:07:04.062Z,9.98
2023-03-26T16:09:58.730Z,9.90
2023-03-26T16:12:47.566Z,9.98
2023-03-26T16:15:51.681Z,9.85
2023-03-26T16:18:37.277Z,9.82
2023-03-26T16:21:44.653Z,9.86
2023-03-26T16:24:27.278Z,9.80
2023-03-26T16:27:32.545Z,9.86
2023-03-26T16:30:33.625Z,9.84
2023-03-26T16:33:16.420Z,9.79
2023-03-26T16:36:19.104Z,9.81
2023-03-26T16:38:55.369Z,9.85
2023-03-26T16:41:29.076Z,9.78
2023-03-26T16:44:12.293Z,9.76
2023-03-26T16:47:01.419Z,9.71
2023-03-26T16:50:09.542Z,9.75
2023-03-26T16:52:52.682Z,9.77
2023-03-26T16:55:35.199Z,9.73
2023-03-26T16:58:17.001Z,9.74
2023-03-26T17:01:08.765Z,9.71
2023-03-26T17:03:56.190Z,9.69
2023-03-26T17:07:14.481Z,9.67
2023-03-26T17:10:01.891Z,9.66
2023-03-26T17:12:43.153Z,9.64
2023-03-26T17:15:41.192Z,9.63
2023-03-26T17:18:29.101Z,9.59
2023-03-26T17:21:10.349Z,9.50
2023-03-26T17:24:04.563Z,9.51
2023-03-26T17:26:48.538Z,9.52
2023-03-26T17:29:40.824Z,9.50
2023-03-26T17:32:15.161Z,9.46
2023-03-26T17:35:04.301Z,9.46
2023-03-26T17:37:48.592Z,9.42
2023-03-26T17:40:52.003Z,9.42
2023-03-26T17:43:46.121Z,9.45
2023-03-26T17:46:33.118Z,9.44
2023-03-26T17:49:14.660Z,9.42
2023-03-26T17:51:55.579Z,9.34
2023-03-26T17:54:34.688Z,9.34
2023-03-26T17:57:12.643Z,9.33
2023-03-26T17:59:44.527Z,9.33
2023-03-26T18:02:20.424Z,9.24
2023-03-26T18:04:57.852Z,9.26
2023-03-26T18:08:26.389Z,9.28
2023-03-26T18:12:13.539Z,9.16
2023-03-26T18:15:27.664Z,9.13
2023-03-26T18:18:10.839Z,9.04
2023-03-26T18:20:43.288Z,9.03
2023-03-26T18:23:22.607Z,9.04
2023-03-26T18:25:59.011Z,8.97
2023-03-26T18:28:42.949Z,8.94
2023-03-26T18:31:21.109Z,8.97
2023-03-26T18:33:55.203Z,8.99
2023-03-26T18:36:27.834Z,9.00
2023-03-26T18:39:00.567Z,9.01
2023-03-26T18:41:39.279Z,9.03
2023-03-26T18:44:17.740Z,9.02
2023-03-26T18:46:47.783Z,9.01
2023-03-26T18:49:18.711Z,8.86
2023-03-26T18:51:56.649Z,8.78
2023-03-26T18:54:34.395Z,8.83
2023-03-26T18:57:15.027Z,8.84
2023-03-26T18:59:46.748Z,8.81
2023-03-26T19:02:17.362Z,8.76
2023-03-26T19:04:49.184Z,8.73
2023-03-26T19:07:23.445Z,8.74
2023-03-26T19:09:56.582Z,8.75
2023-03-26T19:12:32.957Z,8.75
2023-03-26T19:15:11.133Z,8.76
2023-03-26T19:17:44.571Z,8.75
2023-03-26T19:20:21.827Z,8.72
2023-03-26T19:22:52.121Z,8.75
2023-03-26T19:25:27.261Z,8.75
2023-03-26T19:27:56.991Z,8.76
2023-03-26T19:30:34.304Z,8.77
2023-03-26T19:33:14.079Z,8.76
2023-03-26T19:35:45.569Z,8.77
2023-03-26T19:38:26.368Z,8.77
2023-03-26T19:40:59.321Z,8.76
2023-03-26T19:43:29.672Z,8.75
2023-03-26T19:46:01.208Z,8.73
2023-03-26T19:48:46.684Z,8.74
2023-03-26T19:51:23.644Z,8.72
2023-03-26T19:53:56.777Z,8.73
2023-03-26T19:56:26.795Z,8.71
2023-03-26T19:58:58.364Z,8.71
2023-03-26T20:01:31.941Z,8.70
2023-03-26T20:04:06.706Z,8.69
2023-03-26T20:06:43.640Z,8.65
2023-03-26T20:09:16.338Z,8.64
2023-03-26T20:11:47.579Z,8.59
2023-03-26T20:14:25.246Z,8.59
2023-03-26T20:16:56.796Z,8.53
2023-03-26T20:19:28.154Z,8.43
2023-03-26T20:21:58.138Z,8.34
2023-03-26T20:24:28.009Z,8.38
2023-03-26T20:26:57.581Z,8.42
2023-03-26T20:29:28.853Z,8.38
2023-03-26T20:31:59.219Z,8.40
2023-03-26T20:34:29.185Z,8.30
2023-03-26T20:37:01.353Z,8.21
2023-03-26T20:39:31.167Z,8.22
2023-03-26T20:42:00.661Z,8.20
2023-03-26T20:44:31.417Z,8.20
2023-03-26T20:47:02.417Z,8.26
2023-03-26T20:49:32.353Z,8.26
2023-03-26T20:52:01.286Z,8.26
2023-03-26T20:54:31.484Z,8.24
2023-03-26T20:57:02.434Z,8.21
2023-03-26T20:59:32.584Z,8.10
2023-03-26T21:02:03.274Z,8.14
2023-03-26T21:04:32.276Z,8.19
2023-03-26T21:07:14.911Z,8.19
2023-03-26T21:09:48.723Z,8.20
2023-03-26T21:12:30.898Z,8.19
2023-03-26T21:15:09.975Z,8.12
2023-03-26T21:17:47.301Z,8.14
2023-03-26T21:20:22.646Z,8.12
2023-03-26T21:23:06.295Z,8.10
2023-03-26T21:25:48.647Z,8.05
2023-03-26T21:28:41.701Z,8.03
2023-03-26T21:31:20.005Z,8.08
2023-03-26T21:33:55.238Z,8.06
2023-03-26T21:36:25.858Z,8.07
2023-03-26T21:38:58.096Z,8.08
2023-03-26T21:41:41.303Z,8.04
2023-03-26T21:44:12.370Z,8.01
2023-03-26T21:46:44.589Z,7.99
2023-03-26T21:49:19.730Z,7.97
2023-03-26T21:51:52.126Z,8.01
2023-03-26T21:54:28.569Z,7.99
2023-03-26T21:57:36.196Z,7.96
2023-03-26T22:00:15.701Z,7.95
2023-03-26T22:03:08.914Z,7.99
2023-03-26T22:05:50.103Z,7.98
2023-03-26T22:08:30.597Z,7.98
2023-03-26T22:11:00.389Z,7.98
2023-03-26T22:13:29.413Z,7.95
2023-03-26T22:15:58.985Z,7.91
2023-03-26T22:18:30.907Z,7.90
2023-03-26T22:21:03.077Z,7.91
2023-03-26T22:23:36.333Z,7.93
2023-03-26T22:26:06.345Z,7.93
2023-03-26T22:28:37.079Z,7.93
2023-03-26T22:31:12.676Z,7.91
2023-03-26T22:33:42.931Z,7.88
2023-03-26T22:36:22.429Z,7.81
2023-03-26T22:38:55.536Z,7.73
2023-03-26T22:41:25.442Z,7.64
2023-03-26T22:43:59.521Z,7.56
2023-03-26T22:46:31.220Z,7.59
2023-03-26T22:49:02.120Z,7.51
2023-03-26T22:51:33.455Z,7.50
2023-03-26T22:54:03.927Z,7.49
2023-03-26T22:56:34.135Z,7.49
2023-03-26T22:59:03.769Z,7.45
2023-03-26T23:01:35.017Z,7.44
2023-03-26T23:04:04.178Z,7.43
2023-03-26T23:06:35.797Z,7.46
2023-03-26T23:09:07.797Z,7.43
2023-03-26T23:11:37.884Z,7.39
2023-03-26T23:14:09.330Z,7.43
2023-03-26T23:16:39.074Z,7.40
2023-03-26T23:19:09.986Z,7.42
2023-03-26T23:21:40.968Z,7.44
2023-03-26T23:24:10.675Z,7.40
2023-03-26T23:26:49.683Z,7.40
2023-03-26T23:29:20.533Z,7.27
2023-03-26T23:31:53.573Z,7.33
2023-03-26T23:34:23.223Z,7.25
2023-03-26T23:36:54.429Z,7.27
2023-03-26T23:39:23.586Z,7.28
2023-03-26T23:41:53.510Z,7.30
2023-03-26T23:44:23.632Z,7.26
2023-03-26T23:46:58.063Z,7.31
2023-03-26T23:49:27.879Z,7.33
2023-03-26T23:52:00.936Z,7.35
2023-03-26T23:54:31.512Z,7.22
2023-03-26T23:57:01.756Z,7.15
2023-03-26T23:59:30.839Z,7.21
